Time;durP1;ratioP1;P1;durP2;ratioP2;P2;SDS_P1;SDS_P2;PMS_P1;PMS_P2;Temp;Humidity;BMP_temperature;BMP_pressure;BME280_temperature;BME280_humidity;BME280_pressure;Samples;Min_cycle;Max_cycle;Signal;HPM_P1;HPM_P2
2023/12/27 00:01:22;;;;;;;17.20;6.18;;;;;;;;;;5113916;28;20036;-60
2023/12/27 00:03:48;;;;;;;12.32;5.97;;;;;;;;;;5111024;28;20051;-60
2023/12/27 00:06:13;;;;;;;16.15;6.07;;;;;;;;;;5112134;28;20028;-60
2023/12/27 00:08:38;;;;;;;28.15;10.18;;;;;;;;;;5109233;28;20384;-60
2023/12/27 00:11:04;;;;;;;28.15;10.82;;;;;;;;;;5113235;28;20384;-60
2023/12/27 00:13:29;;;;;;;25.45;8.02;;;;;;;;;;5107335;28;20031;-60
2023/12/27 00:15:55;;;;;;;19.90;7.28;;;;;;;;;;5110809;28;20240;-60
2023/12/27 00:18:20;;;;;;;22.40;7.78;;;;;;;;;;5112077;28;20039;-60
2023/12/27 00:20:47;;;;;;;18.15;7.25;;;;;;;;;;5111062;28;20496;-60
2023/12/27 00:23:13;;;;;;;19.25;7.40;;;;;;;;;;5113296;28;20056;-60
2023/12/27 00:25:39;;;;;;;18.83;6.95;;;;;;;;;;5110214;28;20476;-60
2023/12/27 00:28:05;;;;;;;16.45;6.32;;;;;;;;;;5095313;28;20044;-61
2023/12/27 00:30:31;;;;;;;15.45;5.85;;;;;;;;;;5109846;28;20044;-60
2023/12/27 00:32:57;;;;;;;21.52;6.75;;;;;;;;;;5112067;28;20038;-61
2023/12/27 00:35:22;;;;;;;16.88;6.65;;;;;;;;;;5110186;28;20031;-61
2023/12/27 00:37:48;;;;;;;18.25;7.05;;;;;;;;;;5109100;28;20048;-61
2023/12/27 00:40:13;;;;;;;19.70;7.60;;;;;;;;;;5111361;28;20035;-61
2023/12/27 00:42:39;;;;;;;18.00;7.18;;;;;;;;;;5111092;28;20036;-60
2023/12/27 00:45:05;;;;;;;19.58;7.00;;;;;;;;;;5110807;28;20560;-60
2023/12/27 00:47:30;;;;;;;19.23;7.07;;;;;;;;;;5111219;28;20046;-60
2023/12/27 00:49:55;;;;;;;18.33;6.93;;;;;;;;;;5109175;28;20028;-60
2023/12/27 00:52:21;;;;;;;17.58;7.35;;;;;;;;;;5111518;28;20118;-60
2023/12/27 00:54:46;;;;;;;20.25;6.78;;;;;;;;;;5110307;28;20084;-60
2023/12/27 00:57:11;;;;;;;16.13;6.55;;;;;;;;;;5111644;28;20035;-60
2023/12/27 00:59:37;;;;;;;14.73;6.28;;;;;;;;;;5112569;28;20502;-60
2023/12/27 01:02:02;;;;;;;17.83;6.60;;;;;;;;;;5108644;28;20027;-60
2023/12/27 01:04:28;;;;;;;18.83;6.50;;;;;;;;;;5111058;28;20489;-60
2023/12/27 01:06:53;;;;;;;16.55;6.53;;;;;;;;;;5110225;28;20039;-60
2023/12/27 01:09:19;;;;;;;13.35;5.60;;;;;;;;;;5109866;28;20027;-60
2023/12/27 01:11:44;;;;;;;18.90;6.05;;;;;;;;;;5110130;28;20035;-60
2023/12/27 01:14:10;;;;;;;19.02;6.40;;;;;;;;;;5106862;28;20039;-60
2023/12/27 01:16:35;;;;;;;20.73;7.07;;;;;;;;;;5105409;28;20157;-60
2023/12/27 01:19:00;;;;;;;15.45;6.63;;;;;;;;;;5109709;28;20111;-60
2023/12/27 01:21:26;;;;;;;19.65;7.35;;;;;;;;;;5106144;28;20050;-60
2023/12/27 01:23:51;;;;;;;17.20;6.35;;;;;;;;;;5109702;28;20027;-60
2023/12/27 01:26:17;;;;;;;14.65;6.35;;;;;;;;;;5110878;28;20089;-60
2023/12/27 01:28:42;;;;;;;15.52;6.00;;;;;;;;;;5110250;28;20449;-59
2023/12/27 01:31:10;;;;;;;16.33;6.75;;;;;;;;;;5109055;28;20043;-60
2023/12/27 01:33:36;;;;;;;19.83;6.13;;;;;;;;;;5110985;28;20046;-60
2023/12/27 01:36:06;;;;;;;14.77;6.10;;;;;;;;;;5108112;28;20597;-60
2023/12/27 01:38:31;;;;;;;20.27;6.03;;;;;;;;;;5109188;28;20044;-60
2023/12/27 01:40:56;;;;;;;20.02;6.38;;;;;;;;;;5109802;28;20035;-60
2023/12/27 01:43:22;;;;;;;18.45;5.97;;;;;;;;;;5110445;28;20059;-60
2023/12/27 01:45:50;;;;;;;15.23;5.95;;;;;;;;;;5111905;28;20031;-60
2023/12/27 01:48:16;;;;;;;14.50;5.85;;;;;;;;;;5113595;28;20490;-59
2023/12/27 01:50:42;;;;;;;15.07;6.63;;;;;;;;;;5105453;28;20373;-60
2023/12/27 01:53:08;;;;;;;17.15;7.15;;;;;;;;;;5114410;28;20059;-59
2023/12/27 01:55:35;;;;;;;18.50;6.50;;;;;;;;;;5114675;28;20067;-60
2023/12/27 01:58:02;;;;;;;19.83;6.75;;;;;;;;;;5115181;28;20057;-61
2023/12/27 02:00:28;;;;;;;15.25;6.70;;;;;;;;;;5112757;28;20039;-60
2023/12/27 02:02:54;;;;;;;22.60;6.65;;;;;;;;;;5113546;28;20031;-59
2023/12/27 02:05:19;;;;;;;14.95;7.00;;;;;;;;;;5112761;28;20038;-60
2023/12/27 02:07:46;;;;;;;17.20;6.70;;;;;;;;;;5115163;28;20119;-60
2023/12/27 02:10:11;;;;;;;16.38;6.68;;;;;;;;;;5114150;28;20028;-60
2023/12/27 02:12:36;;;;;;;17.13;6.35;;;;;;;;;;5112724;28;20023;-60
2023/12/27 02:15:02;;;;;;;21.30;7.22;;;;;;;;;;5113296;28;20035;-59
2023/12/27 02:17:29;;;;;;;14.05;5.88;;;;;;;;;;5112858;28;20387;-59
2023/12/27 02:19:55;;;;;;;17.88;6.38;;;;;;;;;;5112164;28;20023;-59
2023/12/27 02:22:23;;;;;;;22.05;6.65;;;;;;;;;;5109828;28;20055;-59
2023/12/27 02:24:50;;;;;;;14.85;5.60;;;;;;;;;;5113029;28;20549;-60
2023/12/27 02:27:15;;;;;;;15.48;6.18;;;;;;;;;;5114259;28;20053;-59
2023/12/27 02:29:41;;;;;;;11.30;5.60;;;;;;;;;;5114212;28;20105;-59
2023/12/27 02:32:08;;;;;;;20.10;7.13;;;;;;;;;;5111983;28;20472;-59
2023/12/27 02:34:34;;;;;;;22.10;7.00;;;;;;;;;;5102655;28;20032;-59
2023/12/27 02:36:59;;;;;;;18.33;6.63;;;;;;;;;;5103769;28;20046;-59
2023/12/27 02:39:25;;;;;;;17.77;6.53;;;;;;;;;;5110486;28;20039;-60
2023/12/27 02:41:50;;;;;;;14.68;6.47;;;;;;;;;;5094933;28;20100;-60
2023/12/27 02:44:15;;;;;;;18.30;6.03;;;;;;;;;;5115414;28;20031;-58
2023/12/27 02:46:41;;;;;;;18.08;6.78;;;;;;;;;;5112487;28;20028;-59
2023/12/27 02:49:06;;;;;;;16.75;6.53;;;;;;;;;;5113121;28;20038;-60
2023/12/27 02:51:31;;;;;;;18.38;6.07;;;;;;;;;;5112050;28;20387;-60
2023/12/27 02:53:57;;;;;;;15.85;6.63;;;;;;;;;;5114585;28;20089;-60
2023/12/27 02:56:22;;;;;;;17.17;6.50;;;;;;;;;;5113633;28;20063;-60
2023/12/27 02:58:47;;;;;;;15.88;5.82;;;;;;;;;;5111264;28;20391;-60
2023/12/27 03:01:13;;;;;;;15.65;6.05;;;;;;;;;;5112418;28;20164;-60
2023/12/27 03:03:39;;;;;;;18.58;6.55;;;;;;;;;;5113321;28;20047;-60
2023/12/27 03:06:05;;;;;;;14.55;5.93;;;;;;;;;;5113795;28;20744;-60
2023/12/27 03:08:31;;;;;;;21.33;6.32;;;;;;;;;;5114643;28;20039;-60
2023/12/27 03:10:56;;;;;;;15.10;6.25;;;;;;;;;;5113609;28;20076;-60
2023/12/27 03:13:21;;;;;;;18.05;6.57;;;;;;;;;;5114952;28;20019;-60
2023/12/27 03:15:47;;;;;;;14.38;5.88;;;;;;;;;;5114395;28;20028;-60
2023/12/27 03:18:12;;;;;;;16.10;6.45;;;;;;;;;;5114398;28;20038;-60
2023/12/27 03:20:37;;;;;;;12.27;6.40;;;;;;;;;;5109161;28;20047;-59
2023/12/27 03:23:03;;;;;;;18.85;6.07;;;;;;;;;;5113206;28;20032;-59
2023/12/27 03:25:29;;;;;;;16.58;6.53;;;;;;;;;;5114265;28;20028;-59
2023/12/27 03:27:54;;;;;;;18.88;5.90;;;;;;;;;;5113428;28;20061;-60
2023/12/27 03:30:19;;;;;;;15.93;5.80;;;;;;;;;;5114442;28;20034;-59
2023/12/27 03:32:45;;;;;;;20.15;6.57;;;;;;;;;;5113582;28;20055;-59
2023/12/27 03:35:10;;;;;;;15.60;5.85;;;;;;;;;;5113002;28;20484;-59
2023/12/27 03:37:35;;;;;;;13.75;6.07;;;;;;;;;;5104563;28;20541;-59
2023/12/27 03:40:01;;;;;;;15.95;5.72;;;;;;;;;;5097097;28;20115;-59
2023/12/27 03:42:26;;;;;;;15.52;5.90;;;;;;;;;;5107151;28;20035;-59
2023/12/27 03:44:52;;;;;;;15.10;5.80;;;;;;;;;;5092770;28;20040;-58
2023/12/27 03:47:22;;;;;;;15.60;5.20;;;;;;;;;;5075371;28;20123;-60
2023/12/27 03:49:47;;;;;;;16.80;5.78;;;;;;;;;;5093347;28;20051;-59
2023/12/27 03:52:13;;;;;;;12.52;5.82;;;;;;;;;;5099918;28;20383;-59
2023/12/27 03:54:39;;;;;;;12.15;5.75;;;;;;;;;;5095540;28;20110;-59
2023/12/27 03:57:04;;;;;;;18.45;5.65;;;;;;;;;;5111374;28;20380;-59
2023/12/27 03:59:29;;;;;;;19.38;5.93;;;;;;;;;;5113728;28;20034;-59
2023/12/27 04:01:55;;;;;;;20.45;6.10;;;;;;;;;;5106956;28;20652;-60
2023/12/27 04:04:20;;;;;;;16.70;5.88;;;;;;;;;;5106713;28;20048;-59
2023/12/27 04:06:46;;;;;;;12.90;5.50;;;;;;;;;;5093382;28;20030;-59
2023/12/27 04:09:12;;;;;;;14.23;5.78;;;;;;;;;;5098527;28;20059;-59
2023/12/27 04:11:47;;;;;;;13.63;5.47;;;;;;;;;;5110966;28;20418;-59
2023/12/27 04:14:16;;;;;;;16.60;5.60;;;;;;;;;;5108188;28;20027;-60
2023/12/27 04:16:41;;;;;;;12.35;5.78;;;;;;;;;;5093035;28;20380;-60
2023/12/27 04:19:06;;;;;;;17.23;5.95;;;;;;;;;;5101649;28;20497;-59
2023/12/27 04:21:32;;;;;;;17.88;6.18;;;;;;;;;;5111785;28;20047;-60
2023/12/27 04:23:57;;;;;;;20.73;7.07;;;;;;;;;;5095969;28;20107;-60
2023/12/27 04:26:22;;;;;;;14.48;6.35;;;;;;;;;;5102176;28;20361;-60
2023/12/27 04:28:48;;;;;;;19.63;6.93;;;;;;;;;;5111859;28;20040;-60
2023/12/27 04:31:13;;;;;;;20.58;6.72;;;;;;;;;;5109172;28;20110;-60
2023/12/27 04:33:38;;;;;;;27.55;7.35;;;;;;;;;;5110511;28;20332;-60
2023/12/27 04:36:05;;;;;;;18.60;7.35;;;;;;;;;;5110191;28;20032;-60
2023/12/27 04:38:30;;;;;;;20.90;7.50;;;;;;;;;;5106631;28;20514;-60
2023/12/27 04:40:56;;;;;;;17.95;7.15;;;;;;;;;;5099715;28;20028;-60
2023/12/27 04:43:21;;;;;;;23.33;7.35;;;;;;;;;;5111659;28;20151;-60
2023/12/27 04:45:48;;;;;;;23.20;7.60;;;;;;;;;;5107878;28;20035;-60
2023/12/27 04:48:14;;;;;;;26.98;7.57;;;;;;;;;;5110271;28;20613;-59
2023/12/27 04:50:39;;;;;;;20.40;7.30;;;;;;;;;;5112832;28;20027;-59
2023/12/27 04:53:05;;;;;;;20.45;7.53;;;;;;;;;;5109808;28;20313;-60
2023/12/27 04:55:30;;;;;;;21.30;7.78;;;;;;;;;;5109526;28;20097;-60
2023/12/27 04:57:56;;;;;;;24.25;7.80;;;;;;;;;;5109181;28;20471;-60
2023/12/27 05:00:22;;;;;;;24.05;7.40;;;;;;;;;;5112265;28;20027;-60
2023/12/27 05:02:48;;;;;;;21.20;7.85;;;;;;;;;;5102327;28;20031;-60
2023/12/27 05:05:14;;;;;;;23.17;7.68;;;;;;;;;;5103561;28;20102;-59
2023/12/27 05:07:39;;;;;;;25.80;7.32;;;;;;;;;;5111477;28;20031;-60
2023/12/27 05:10:05;;;;;;;32.20;8.13;;;;;;;;;;5109857;28;20032;-59
2023/12/27 05:12:30;;;;;;;24.13;7.18;;;;;;;;;;5111124;28;20375;-60
2023/12/27 05:14:55;;;;;;;24.65;7.93;;;;;;;;;;5107506;28;20027;-60
2023/12/27 05:17:21;;;;;;;24.08;7.55;;;;;;;;;;5110616;28;20058;-60
2023/12/27 05:19:47;;;;;;;21.65;7.03;;;;;;;;;;5110549;28;20097;-60
2023/12/27 05:22:12;;;;;;;22.17;7.82;;;;;;;;;;5110352;28;20073;-60
2023/12/27 05:24:38;;;;;;;24.83;7.75;;;;;;;;;;5110581;28;20371;-59
2023/12/27 05:27:03;;;;;;;21.08;8.07;;;;;;;;;;5109918;28;20085;-60
2023/12/27 05:29:28;;;;;;;26.30;8.25;;;;;;;;;;5110811;28;20039;-59
2023/12/27 05:31:54;;;;;;;30.40;8.90;;;;;;;;;;5106911;28;20043;-60
2023/12/27 05:34:19;;;;;;;23.98;7.90;;;;;;;;;;5110143;28;20071;-60
2023/12/27 05:36:45;;;;;;;21.42;7.72;;;;;;;;;;5110830;28;20076;-60
2023/12/27 05:39:12;;;;;;;21.42;7.50;;;;;;;;;;5111392;28;20504;-60
2023/12/27 05:41:38;;;;;;;26.52;7.72;;;;;;;;;;5110554;28;20433;-59
2023/12/27 05:44:03;;;;;;;25.55;8.18;;;;;;;;;;5111423;28;20028;-60
2023/12/27 05:46:33;;;;;;;23.55;7.63;;;;;;;;;;5109167;28;20034;-60
2023/12/27 05:48:58;;;;;;;25.63;7.97;;;;;;;;;;5106687;28;20737;-60
2023/12/27 05:51:24;;;;;;;23.70;7.40;;;;;;;;;;5111581;28;20032;-60
2023/12/27 05:53:50;;;;;;;23.65;8.23;;;;;;;;;;5110766;28;20479;-60
2023/12/27 05:56:16;;;;;;;23.23;7.38;;;;;;;;;;5108814;28;20476;-59
2023/12/27 05:58:41;;;;;;;20.40;7.82;;;;;;;;;;5108629;28;20035;-64
2023/12/27 06:01:09;;;;;;;26.98;8.20;;;;;;;;;;5107153;28;20031;-60
2023/12/27 06:03:34;;;;;;;26.95;7.78;;;;;;;;;;5110541;28;20503;-60
2023/12/27 06:06:00;;;;;;;26.52;7.97;;;;;;;;;;5107002;28;20079;-60
2023/12/27 06:08:26;;;;;;;27.73;8.50;;;;;;;;;;5111881;28;20035;-59
2023/12/27 06:10:51;;;;;;;23.25;8.10;;;;;;;;;;5095663;28;20044;-60
2023/12/27 06:13:17;;;;;;;21.30;7.80;;;;;;;;;;5106438;28;20020;-60
2023/12/27 06:15:42;;;;;;;20.42;7.80;;;;;;;;;;5110404;28;20036;-60
2023/12/27 06:18:08;;;;;;;28.05;8.35;;;;;;;;;;5109302;28;20035;-60
2023/12/27 06:20:33;;;;;;;25.50;7.72;;;;;;;;;;5107105;28;20135;-59
2023/12/27 06:22:59;;;;;;;19.08;7.53;;;;;;;;;;5109545;28;20080;-60
2023/12/27 06:25:24;;;;;;;23.70;8.10;;;;;;;;;;5110150;28;20027;-60
2023/12/27 06:27:49;;;;;;;24.08;8.02;;;;;;;;;;5109927;28;20032;-59
2023/12/27 06:30:15;;;;;;;23.70;7.72;;;;;;;;;;5105121;28;20463;-60
2023/12/27 06:32:40;;;;;;;20.55;7.53;;;;;;;;;;5113231;28;20062;-60
2023/12/27 06:35:06;;;;;;;22.42;8.57;;;;;;;;;;5112907;28;20116;-60
2023/12/27 06:37:31;;;;;;;24.67;7.55;;;;;;;;;;5082194;28;20458;-59
2023/12/27 06:39:57;;;;;;;20.08;8.00;;;;;;;;;;5108671;28;20494;-60
2023/12/27 06:42:22;;;;;;;24.00;7.80;;;;;;;;;;5112721;28;20032;-60
2023/12/27 06:44:48;;;;;;;19.13;7.65;;;;;;;;;;5112233;28;20031;-60
2023/12/27 06:47:13;;;;;;;23.90;7.38;;;;;;;;;;5111440;28;20059;-60
2023/12/27 06:49:38;;;;;;;22.27;7.50;;;;;;;;;;5095185;28;20027;-60
2023/12/27 06:52:04;;;;;;;26.38;8.30;;;;;;;;;;5112863;28;20448;-60
2023/12/27 06:54:29;;;;;;;28.00;8.43;;;;;;;;;;5113680;28;20040;-60
2023/12/27 06:56:55;;;;;;;33.30;8.13;;;;;;;;;;5113725;28;20387;-59
2023/12/27 06:59:20;;;;;;;27.15;7.82;;;;;;;;;;5112850;28;20027;-59
2023/12/27 07:01:45;;;;;;;17.48;7.53;;;;;;;;;;5109918;28;20471;-59
2023/12/27 07:04:11;;;;;;;26.35;7.90;;;;;;;;;;5112918;28;20054;-59
2023/12/27 07:06:38;;;;;;;22.75;7.65;;;;;;;;;;5113566;28;20499;-60
2023/12/27 07:09:04;;;;;;;21.48;8.55;;;;;;;;;;5111114;28;20036;-60
2023/12/27 07:11:29;;;;;;;23.20;8.23;;;;;;;;;;5113279;28;20024;-60
2023/12/27 07:13:54;;;;;;;25.73;7.97;;;;;;;;;;5112251;28;20027;-59
2023/12/27 07:16:20;;;;;;;22.67;7.78;;;;;;;;;;5112186;28;20106;-60
2023/12/27 07:18:45;;;;;;;25.15;7.70;;;;;;;;;;5113338;28;20100;-60
2023/12/27 07:21:11;;;;;;;29.75;8.32;;;;;;;;;;5109011;28;20484;-60
2023/12/27 07:23:37;;;;;;;26.38;7.93;;;;;;;;;;5110466;28;20077;-60
2023/12/27 07:26:04;;;;;;;24.17;8.13;;;;;;;;;;5112543;28;20036;-60
2023/12/27 07:28:30;;;;;;;26.95;7.65;;;;;;;;;;5112975;28;20395;-60
2023/12/27 07:30:57;;;;;;;25.95;7.60;;;;;;;;;;5105642;28;20055;-60
2023/12/27 07:33:22;;;;;;;19.08;7.45;;;;;;;;;;5112122;28;20031;-60
2023/12/27 07:35:48;;;;;;;24.27;7.68;;;;;;;;;;5112674;28;20062;-60
2023/12/27 07:38:13;;;;;;;23.38;8.20;;;;;;;;;;5110342;28;20031;-60
2023/12/27 07:40:40;;;;;;;22.17;7.85;;;;;;;;;;5095402;28;20036;-60
2023/12/27 07:43:06;;;;;;;29.27;8.50;;;;;;;;;;5105226;28;20036;-60
2023/12/27 07:45:33;;;;;;;21.90;8.30;;;;;;;;;;5105969;28;20046;-60
2023/12/27 07:47:58;;;;;;;20.50;7.53;;;;;;;;;;5113502;28;20467;-60
2023/12/27 07:50:23;;;;;;;25.90;8.32;;;;;;;;;;5112983;28;20024;-60
2023/12/27 07:52:49;;;;;;;22.20;8.65;;;;;;;;;;5113298;28;20521;-59
2023/12/27 07:55:14;;;;;;;17.88;7.93;;;;;;;;;;5112630;28;20042;-60
2023/12/27 07:57:41;;;;;;;27.73;8.13;;;;;;;;;;5106938;28;20468;-59
2023/12/27 08:00:08;;;;;;;22.17;8.52;;;;;;;;;;5112269;28;20028;-59
2023/12/27 08:02:33;;;;;;;22.67;8.18;;;;;;;;;;5111025;28;20114;-59
2023/12/27 08:04:58;;;;;;;19.33;8.50;;;;;;;;;;5109304;28;20197;-59
2023/12/27 08:07:24;;;;;;;23.98;8.85;;;;;;;;;;5112503;28;20023;-58
2023/12/27 08:09:49;;;;;;;22.23;8.25;;;;;;;;;;5112212;28;20452;-60
2023/12/27 08:12:14;;;;;;;30.75;9.63;;;;;;;;;;5112654;28;20035;-59
2023/12/27 08:14:40;;;;;;;20.85;8.55;;;;;;;;;;5113190;28;20361;-59
2023/12/27 08:17:05;;;;;;;30.67;8.35;;;;;;;;;;5112743;28;20427;-59
2023/12/27 08:19:31;;;;;;;22.33;7.70;;;;;;;;;;5112418;28;20437;-59
2023/12/27 08:21:56;;;;;;;22.40;8.13;;;;;;;;;;5113332;28;20075;-58
2023/12/27 08:24:21;;;;;;;24.33;8.90;;;;;;;;;;5112404;28;20387;-57
2023/12/27 08:26:47;;;;;;;20.08;7.57;;;;;;;;;;5097027;28;20036;-59
2023/12/27 08:29:12;;;;;;;20.92;8.57;;;;;;;;;;5097765;28;20391;-56
2023/12/27 08:31:38;;;;;;;29.73;9.02;;;;;;;;;;5113035;28;20030;-58
2023/12/27 08:34:04;;;;;;;26.75;8.45;;;;;;;;;;5113288;28;20065;-58
2023/12/27 08:36:32;;;;;;;24.17;8.77;;;;;;;;;;5107997;28;20058;-57
2023/12/27 08:38:58;;;;;;;21.25;8.68;;;;;;;;;;5094737;28;20082;-59
2023/12/27 08:41:24;;;;;;;26.60;8.93;;;;;;;;;;5111276;28;20492;-59
2023/12/27 08:43:53;;;;;;;25.02;9.25;;;;;;;;;;5112244;28;20032;-59
2023/12/27 08:46:20;;;;;;;23.70;9.13;;;;;;;;;;5112005;28;20057;-60
2023/12/27 08:48:46;;;;;;;28.42;8.80;;;;;;;;;;5101493;28;20442;-61
2023/12/27 08:51:12;;;;;;;28.25;9.30;;;;;;;;;;5092797;28;20039;-60
2023/12/27 08:53:37;;;;;;;33.22;9.57;;;;;;;;;;5112007;28;20035;-61
2023/12/27 08:56:02;;;;;;;23.38;9.48;;;;;;;;;;5097029;28;20031;-62
2023/12/27 08:58:28;;;;;;;22.83;8.32;;;;;;;;;;5097752;28;20595;-61
2023/12/27 09:00:54;;;;;;;21.88;8.95;;;;;;;;;;5101476;28;20028;-61
2023/12/27 09:03:19;;;;;;;24.08;10.05;;;;;;;;;;5103189;28;20100;-61
2023/12/27 09:05:46;;;;;;;19.25;8.68;;;;;;;;;;5106238;28;20035;-61
2023/12/27 09:08:11;;;;;;;23.33;8.63;;;;;;;;;;5096896;28;20663;-61
2023/12/27 09:10:37;;;;;;;22.02;8.40;;;;;;;;;;5104154;28;20032;-62
2023/12/27 09:13:03;;;;;;;23.13;9.02;;;;;;;;;;5078500;28;20036;-61
2023/12/27 09:15:29;;;;;;;24.10;8.75;;;;;;;;;;5098890;28;20019;-61
2023/12/27 09:17:54;;;;;;;20.13;8.88;;;;;;;;;;5096478;28;20073;-62
2023/12/27 09:20:19;;;;;;;19.25;8.45;;;;;;;;;;5105762;28;20069;-61
2023/12/27 09:22:45;;;;;;;25.25;9.85;;;;;;;;;;5107689;28;20111;-61
2023/12/27 09:25:12;;;;;;;24.33;8.73;;;;;;;;;;5099519;28;20067;-60
2023/12/27 09:27:37;;;;;;;21.05;9.13;;;;;;;;;;5101761;28;20061;-63
2023/12/27 09:30:04;;;;;;;23.33;8.65;;;;;;;;;;5098870;28;20020;-63
2023/12/27 09:32:29;;;;;;;22.98;9.02;;;;;;;;;;5105251;28;20057;-61
2023/12/27 09:34:54;;;;;;;23.90;8.63;;;;;;;;;;5111671;28;20036;-62
2023/12/27 09:37:20;;;;;;;23.48;9.60;;;;;;;;;;5101144;28;20062;-61
2023/12/27 09:39:45;;;;;;;20.80;8.85;;;;;;;;;;5101181;28;20479;-62
2023/12/27 09:42:13;;;;;;;22.20;9.27;;;;;;;;;;5105489;28;20039;-60
2023/12/27 09:44:41;;;;;;;19.50;8.95;;;;;;;;;;5096816;28;20472;-62
2023/12/27 09:47:10;;;;;;;21.27;9.10;;;;;;;;;;5104782;28;20042;-62
2023/12/27 09:49:36;;;;;;;25.60;9.27;;;;;;;;;;5092609;28;20070;-61
2023/12/27 09:52:03;;;;;;;20.55;8.30;;;;;;;;;;5109896;28;20080;-60
2023/12/27 09:54:29;;;;;;;19.75;8.48;;;;;;;;;;5111187;28;20211;-60
2023/12/27 09:56:54;;;;;;;25.58;8.15;;;;;;;;;;5111486;28;20440;-61
2023/12/27 09:59:27;;;;;;;18.98;8.40;;;;;;;;;;5110420;28;20027;-60
2023/12/27 10:01:59;;;;;;;14.93;7.43;;;;;;;;;;5109853;28;20399;-60
2023/12/27 10:05:08;;;;;;;14.20;7.10;;;;;;;;;;5090827;28;20032;-61
2023/12/27 10:07:38;;;;;;;18.13;7.38;;;;;;;;;;5093885;28;20043;-61
2023/12/27 10:10:07;;;;;;;17.20;6.70;;;;;;;;;;5095554;28;20110;-61
2023/12/27 10:12:32;;;;;;;14.40;6.65;;;;;;;;;;5111049;28;20035;-61
2023/12/27 10:14:57;;;;;;;13.43;6.50;;;;;;;;;;5097295;28;20169;-61
2023/12/27 10:17:23;;;;;;;10.82;5.85;;;;;;;;;;5113981;28;20035;-60
2023/12/27 10:19:49;;;;;;;15.27;5.88;;;;;;;;;;5115802;28;20115;-61
2023/12/27 10:22:14;;;;;;;13.05;5.78;;;;;;;;;;5114386;28;20475;-60
2023/12/27 10:24:40;;;;;;;12.05;5.28;;;;;;;;;;5115551;28;20039;-60
2023/12/27 10:27:08;;;;;;;11.02;4.50;;;;;;;;;;5115809;28;20036;-60
2023/12/27 10:29:34;;;;;;;8.75;4.18;;;;;;;;;;5109463;28;20027;-60
2023/12/27 10:32:00;;;;;;;10.30;4.15;;;;;;;;;;5113793;28;20039;-60
2023/12/27 10:34:26;;;;;;;8.90;4.38;;;;;;;;;;5114605;28;20533;-60
2023/12/27 10:36:52;;;;;;;8.43;3.72;;;;;;;;;;5115270;28;20084;-60
2023/12/27 10:39:18;;;;;;;7.85;3.85;;;;;;;;;;5114345;28;20043;-59
2023/12/27 10:41:43;;;;;;;7.45;3.72;;;;;;;;;;5115410;28;20030;-59
2023/12/27 10:44:09;;;;;;;5.57;3.10;;;;;;;;;;5094946;28;20427;-60
2023/12/27 10:46:37;;;;;;;10.23;3.47;;;;;;;;;;5114294;28;20276;-60
2023/12/27 10:49:04;;;;;;;6.43;3.42;;;;;;;;;;5115151;28;20031;-60
2023/12/27 10:51:30;;;;;;;6.82;3.20;;;;;;;;;;5114361;28;20034;-61
2023/12/27 10:54:00;;;;;;;7.70;3.58;;;;;;;;;;5114084;28;20050;-60
2023/12/27 10:56:26;;;;;;;8.05;3.30;;;;;;;;;;5114013;28;20043;-60
2023/12/27 10:58:52;;;;;;;6.57;3.33;;;;;;;;;;5097374;28;20028;-60
2023/12/27 11:01:18;;;;;;;7.43;3.50;;;;;;;;;;5075729;28;20358;-60
2023/12/27 11:03:49;;;;;;;5.25;3.00;;;;;;;;;;5102793;28;20036;-61
2023/12/27 11:06:17;;;;;;;7.03;3.38;;;;;;;;;;5104102;28;20046;-60
2023/12/27 11:08:48;;;;;;;6.50;3.10;;;;;;;;;;5103737;28;20543;-61
2023/12/27 11:11:15;;;;;;;6.50;3.10;;;;;;;;;;5106573;28;20032;-60
2023/12/27 11:13:42;;;;;;;5.38;2.85;;;;;;;;;;5099105;28;20032;-61
2023/12/27 11:16:09;;;;;;;6.20;2.70;;;;;;;;;;5105928;28;20055;-61
2023/12/27 11:18:35;;;;;;;7.07;3.00;;;;;;;;;;5080580;28;20633;-61
2023/12/27 11:21:01;;;;;;;6.25;2.90;;;;;;;;;;5106111;28;20506;-62
2023/12/27 11:23:27;;;;;;;4.80;2.90;;;;;;;;;;5096170;28;20056;-62
2023/12/27 11:25:55;;;;;;;5.97;2.60;;;;;;;;;;5103574;28;20479;-61
2023/12/27 11:28:21;;;;;;;5.15;2.65;;;;;;;;;;5105438;28;20024;-60
2023/12/27 11:30:47;;;;;;;4.25;2.50;;;;;;;;;;5101958;28;20511;-61
2023/12/27 11:33:21;;;;;;;5.13;2.50;;;;;;;;;;5097973;28;20032;-61
2023/12/27 11:35:47;;;;;;;5.93;2.42;;;;;;;;;;5087294;28;20418;-61
2023/12/27 11:38:19;;;;;;;4.55;2.50;;;;;;;;;;5096518;28;20045;-61
2023/12/27 11:40:45;;;;;;;6.53;2.35;;;;;;;;;;5114800;28;20027;-61
2023/12/27 11:43:18;;;;;;;5.50;2.50;;;;;;;;;;5113766;28;20165;-61
2023/12/27 11:45:59;;;;;;;4.05;2.30;;;;;;;;;;5112971;28;20055;-61
2023/12/27 11:48:27;;;;;;;4.45;2.33;;;;;;;;;;5107996;28;20039;-61
2023/12/27 11:50:55;;;;;;;4.22;2.60;;;;;;;;;;5093631;28;20044;-61
2023/12/27 11:53:24;;;;;;;3.90;2.28;;;;;;;;;;5092834;28;20044;-61
2023/12/27 11:55:51;;;;;;;4.35;2.33;;;;;;;;;;5095009;28;20096;-62
2023/12/27 11:58:29;;;;;;;3.90;2.40;;;;;;;;;;5093009;28;20032;-60
2023/12/27 12:00:54;;;;;;;4.40;2.28;;;;;;;;;;5093520;28;20032;-62
2023/12/27 12:03:28;;;;;;;3.90;2.25;;;;;;;;;;5109487;28;20392;-60
2023/12/27 12:06:26;;;;;;;3.65;2.00;;;;;;;;;;5109444;28;20027;-62
2023/12/27 12:08:52;;;;;;;3.55;2.20;;;;;;;;;;5113035;28;20031;-61
2023/12/27 12:11:17;;;;;;;3.63;2.30;;;;;;;;;;5109195;28;20121;-61
2023/12/27 12:13:45;;;;;;;5.82;1.80;;;;;;;;;;5112548;28;20462;-61
2023/12/27 12:16:10;;;;;;;4.85;2.10;;;;;;;;;;5112638;28;20035;-62
2023/12/27 12:18:36;;;;;;;4.18;1.90;;;;;;;;;;5112548;28;20042;-63
2023/12/27 12:21:03;;;;;;;4.15;1.73;;;;;;;;;;5113193;28;20070;-62
2023/12/27 12:23:32;;;;;;;6.47;2.42;;;;;;;;;;5093147;28;20116;-62
2023/12/27 12:26:02;;;;;;;5.53;2.05;;;;;;;;;;5112782;28;20023;-63
2023/12/27 12:28:28;;;;;;;2.70;1.80;;;;;;;;;;5111160;28;20039;-62
2023/12/27 12:30:58;;;;;;;3.65;1.90;;;;;;;;;;5112268;28;20032;-61
2023/12/27 12:33:24;;;;;;;3.15;1.77;;;;;;;;;;5106682;28;20482;-61
2023/12/27 12:35:55;;;;;;;4.05;1.80;;;;;;;;;;5106352;28;20063;-62
2023/12/27 12:38:21;;;;;;;4.25;1.60;;;;;;;;;;5112089;28;20054;-61
2023/12/27 12:40:47;;;;;;;2.83;1.90;;;;;;;;;;5105487;28;20032;-61
2023/12/27 12:43:14;;;;;;;3.70;1.65;;;;;;;;;;5091966;28;20042;-64
2023/12/27 12:45:40;;;;;;;3.88;1.92;;;;;;;;;;5109640;28;20215;-62
2023/12/27 12:48:06;;;;;;;3.85;1.90;;;;;;;;;;5113000;28;20520;-62
2023/12/27 12:50:31;;;;;;;2.70;1.60;;;;;;;;;;5110521;28;20032;-62
2023/12/27 12:52:57;;;;;;;4.60;2.28;;;;;;;;;;5112196;28;20031;-61
2023/12/27 12:55:28;;;;;;;2.70;1.60;;;;;;;;;;5108228;28;20040;-60
2023/12/27 12:57:56;;;;;;;2.65;1.70;;;;;;;;;;5111777;28;20084;-61
2023/12/27 13:00:22;;;;;;;3.10;1.40;;;;;;;;;;5111164;28;20592;-61
2023/12/27 13:02:49;;;;;;;4.70;1.80;;;;;;;;;;5112513;28;20527;-61
2023/12/27 13:05:14;;;;;;;2.55;1.60;;;;;;;;;;5112385;28;20055;-61
2023/12/27 13:07:41;;;;;;;2.97;1.50;;;;;;;;;;5111645;28;20089;-62
2023/12/27 13:10:09;;;;;;;2.75;1.42;;;;;;;;;;5112521;28;20032;-62
2023/12/27 13:12:35;;;;;;;2.72;1.55;;;;;;;;;;5110922;28;20031;-62
2023/12/27 13:15:00;;;;;;;1.85;1.40;;;;;;;;;;5112502;28;20031;-62
2023/12/27 13:17:26;;;;;;;2.83;1.70;;;;;;;;;;5110154;28;20027;-61
2023/12/27 13:19:52;;;;;;;2.67;1.52;;;;;;;;;;5103483;28;20119;-62
2023/12/27 13:22:17;;;;;;;2.28;1.50;;;;;;;;;;5091696;28;20051;-62
2023/12/27 13:24:43;;;;;;;2.63;1.60;;;;;;;;;;5090955;28;20051;-61
2023/12/27 13:27:09;;;;;;;4.60;1.52;;;;;;;;;;5109428;28;20514;-61
2023/12/27 13:29:34;;;;;;;2.40;1.60;;;;;;;;;;5111419;28;20035;-62
2023/12/27 13:32:00;;;;;;;3.70;1.63;;;;;;;;;;5094086;28;20032;-61
2023/12/27 13:34:25;;;;;;;2.60;1.60;;;;;;;;;;5110748;28;20038;-61
2023/12/27 13:36:51;;;;;;;3.25;1.40;;;;;;;;;;5101155;28;20032;-61
2023/12/27 13:39:16;;;;;;;5.38;1.70;;;;;;;;;;5091773;28;20062;-61
2023/12/27 13:41:42;;;;;;;2.92;1.60;;;;;;;;;;5106736;28;20088;-61
2023/12/27 13:44:07;;;;;;;3.58;1.60;;;;;;;;;;5111012;28;20031;-62
2023/12/27 13:46:33;;;;;;;3.75;1.60;;;;;;;;;;5105233;28;20035;-62
2023/12/27 13:48:59;;;;;;;2.72;1.58;;;;;;;;;;5091432;28;20436;-62
2023/12/27 13:51:24;;;;;;;4.55;1.95;;;;;;;;;;5091361;28;20479;-61
2023/12/27 13:53:49;;;;;;;6.35;1.70;;;;;;;;;;5110570;28;20069;-62
2023/12/27 13:56:16;;;;;;;6.75;2.80;;;;;;;;;;5111486;28;20028;-62
2023/12/27 13:58:43;;;;;;;4.80;2.40;;;;;;;;;;5110742;28;20123;-63
2023/12/27 14:01:08;;;;;;;3.97;2.53;;;;;;;;;;5111250;28;20036;-62
2023/12/27 14:03:34;;;;;;;3.70;1.70;;;;;;;;;;5110175;28;20391;-62
2023/12/27 14:05:59;;;;;;;3.78;1.65;;;;;;;;;;5092503;28;20036;-62
2023/12/27 14:08:25;;;;;;;3.95;1.52;;;;;;;;;;5091109;28;20052;-62
2023/12/27 14:10:50;;;;;;;4.20;1.80;;;;;;;;;;5110201;28;20499;-62
2023/12/27 14:13:16;;;;;;;2.83;1.65;;;;;;;;;;5110800;28;20036;-62
2023/12/27 14:15:41;;;;;;;3.28;1.70;;;;;;;;;;5110532;28;20478;-62
2023/12/27 14:18:08;;;;;;;2.85;1.70;;;;;;;;;;5111722;28;20365;-63
2023/12/27 14:20:33;;;;;;;4.13;1.80;;;;;;;;;;5109652;28;20132;-62
2023/12/27 14:22:59;;;;;;;4.82;1.90;;;;;;;;;;5111826;28;20117;-62
2023/12/27 14:25:24;;;;;;;4.07;1.88;;;;;;;;;;5110899;28;20036;-62
2023/12/27 14:27:50;;;;;;;5.60;1.90;;;;;;;;;;5110379;28;20131;-62